Port Angeles, WA NWLON current weather conditions

sailwx.info

Wind from 195 at 2 knots gusting 3

Air temperature 5.6° C
Water temperature 8.9° C

Last reported at 2019-Nov-21 17:36 UTC.
Time now 2019-Nov-21 18:42 UTC

Location: N 48°08' W 123°26'.
View on Google Maps.

See reports from other nearby stations

  
Tides and Currents Weather Stations Pressure Air Temp Water Temp Dewpoint Dewpoint Depression Visibility Wind Speed Wind Dir Waves Ship Positions
date/time (UTC)wind fromknots sea level pressurealtimeterstation pressurevisibilityair tempwater tempwave heightnotes
2019-Nov-21 17:36 195 2 gusting 3 5.6 8.9
2019-Nov-21 17:30 190 3 gusting 5 5.0 8.9
2019-Nov-21 17:24 202 4 gusting 5 5.0 8.9
2019-Nov-21 17:18 203 4 gusting 5 4.4 8.9
2019-Nov-21 17:12 197 4 gusting 6 4.4 8.9
2019-Nov-21 17:06 200 5 gusting 6 3.9 8.9
2019-Nov-21 17:00 203 5 gusting 6 3.3 8.9
2019-Nov-21 16:54 3.9 8.9
2019-Nov-21 16:48 2.8 8.9
2019-Nov-21 16:42 2.8 8.9
2019-Nov-21 16:36 221 7 gusting 8 2.8 8.9
2019-Nov-21 16:30 216 6 gusting 7 3.3 8.9
2019-Nov-21 16:24 213 6 gusting 7 3.3 8.9
2019-Nov-21 16:18 211 6 gusting 7 2.8 8.9
2019-Nov-21 16:12 209 6 gusting 7 2.8 8.9
2019-Nov-21 16:06 213 6 gusting 8 2.2 8.9
2019-Nov-21 16:00 211 6 gusting 7 2.2 8.9
2019-Nov-21 15:54 212 6 gusting 8 2.2 8.9
2019-Nov-21 15:48 2.2 8.9
2019-Nov-21 15:42 1.7 8.9
2019-Nov-21 15:36 221 7 gusting 8 1.7 8.9
2019-Nov-21 15:30 219 7 gusting 8 1.7 8.9
2019-Nov-21 15:24 216 6 gusting 8 1.7 8.9
2019-Nov-21 15:18 220 7 gusting 8 1.7 8.9
2019-Nov-21 15:12 219 7 gusting 8 1.7 8.9
2019-Nov-21 15:06 211 6 gusting 7 1.7 8.9
2019-Nov-21 15:00 212 6 gusting 7 2.2 8.9
2019-Nov-21 14:54 2.2 8.9
2019-Nov-21 14:48 2.2 8.9
2019-Nov-21 14:42 2.2 8.9
2019-Nov-21 14:36 198 5 gusting 6 2.2 8.9
2019-Nov-21 14:30 200 5 gusting 6 2.2 8.9
2019-Nov-21 14:24 206 5 gusting 6 2.2 8.9
2019-Nov-21 14:18 208 5 gusting 6 2.2 8.9
2019-Nov-21 14:12 201 5 gusting 6 2.2 8.9
2019-Nov-21 14:06 203 5 gusting 6 2.2 8.9
2019-Nov-21 14:00 202 5 gusting 6 2.2 8.9
2019-Nov-21 13:54 200 5 gusting 6 2.2 8.9
2019-Nov-21 13:48 1.7 8.9
2019-Nov-21 13:42 1.7 8.9
2019-Nov-21 13:36 200 5 gusting 6 1.7 8.9
2019-Nov-21 13:30 201 5 gusting 6 1.7 8.9
2019-Nov-21 13:24 209 6 gusting 6 1.7 8.9
2019-Nov-21 13:18 203 6 gusting 7 1.7 8.9
2019-Nov-21 13:12 206 6 gusting 7 1.7 8.9
2019-Nov-21 13:06 206 6 gusting 8 1.7 8.9
2019-Nov-21 13:00 206 6 gusting 7 1.1 8.9
2019-Nov-21 12:54 1.7 8.9
2019-Nov-21 12:48 1.1 8.9
2019-Nov-21 12:42 1.7 8.9
2019-Nov-21 12:36 205 6 gusting 7 1.1 8.9
2019-Nov-21 12:30 206 6 gusting 7 1.1 8.9
2019-Nov-21 12:24 203 5 gusting 7 1.7 8.9
2019-Nov-21 12:18 211 6 gusting 7 1.7 8.9
2019-Nov-21 12:12 202 4 gusting 5 1.1 8.9
2019-Nov-21 12:06 212 4 gusting 5 1.1 8.9
2019-Nov-21 12:00 194 1 gusting 4 1.1 8.9
2019-Nov-21 11:54 198 3 gusting 5 1.7 8.9
2019-Nov-21 11:48 1.7 8.9
2019-Nov-21 11:42 1.7 8.9
2019-Nov-21 11:36 200 6 gusting 7 1.7 8.9
2019-Nov-21 11:30 203 6 gusting 7 1.7 8.9
2019-Nov-21 11:24 201 6 gusting 7 2.2 8.9
2019-Nov-21 11:18 202 5 gusting 6 2.2 8.9
2019-Nov-21 11:12 197 5 gusting 6 1.7 8.9
2019-Nov-21 11:06 200 4 gusting 6 1.7 8.9
2019-Nov-21 11:00 203 5 gusting 7 1.7 8.9
2019-Nov-21 10:54 216 6 gusting 9 1.7 8.9
2019-Nov-21 10:48 1.7 8.9
2019-Nov-21 10:42 1.7 8.9
2019-Nov-21 10:36 210 6 gusting 8 1.7 8.9
2019-Nov-21 10:30 209 6 gusting 9 1.7 8.9
2019-Nov-21 10:24 215 7 gusting 9 1.7 8.9
2019-Nov-21 10:18 215 7 gusting 9 1.7 8.9
2019-Nov-21 10:12 209 6 gusting 8 1.7 8.9
2019-Nov-21 10:06 217 7 gusting 8 1.7 8.9
2019-Nov-21 10:00 212 7 gusting 8 1.7 8.9
2019-Nov-21 09:54 1.7 8.9
2019-Nov-21 09:48 1.7 8.9
2019-Nov-21 09:42 1.7 8.9
2019-Nov-21 09:36 208 6 gusting 7 1.7 8.9
2019-Nov-21 09:30 210 6 gusting 7 1.7 8.9
2019-Nov-21 09:24 211 6 gusting 8 1.7 8.9
2019-Nov-21 09:18 212 6 gusting 8 1.7 8.9
2019-Nov-21 09:12 204 6 gusting 6 1.7 8.9
2019-Nov-21 09:06 204 5 gusting 6 1.7 8.9
2019-Nov-21 09:00 196 5 gusting 5 1.7 8.9
2019-Nov-21 08:54 198 4 gusting 6 1.7 8.9
2019-Nov-21 08:48 1.7 8.9
2019-Nov-21 08:42 1.7 8.9
2019-Nov-21 08:36 199 5 gusting 6 1.7 8.9
2019-Nov-21 08:30 201 5 gusting 6 1.7 8.9
2019-Nov-21 08:24 199 5 gusting 6 1.7 8.9
2019-Nov-21 08:18 201 4 gusting 6 1.7 8.9
2019-Nov-21 08:12 204 5 gusting 6 1.7 8.9
2019-Nov-21 08:06 198 4 gusting 6 1.7 8.9
2019-Nov-21 08:00 193 4 gusting 5 1.7 8.9
2019-Nov-21 07:54 1.7 8.9
2019-Nov-21 07:48 2.2 8.9
2019-Nov-21 07:42 2.2 8.9
2019-Nov-21 07:36 199 4 gusting 6 2.2 8.9
2019-Nov-21 07:30 205 6 gusting 7 2.8 8.9
2019-Nov-21 07:24 205 6 gusting 6 2.8 8.9
2019-Nov-21 07:18 196 6 gusting 7 2.2 8.9
2019-Nov-21 07:12 195 6 gusting 7 2.2 8.9
2019-Nov-21 07:06 195 5 gusting 6 2.2 8.9
2019-Nov-21 07:00 197 5 gusting 6 2.2 8.9
2019-Nov-21 06:54 196 5 gusting 6 2.2 8.9
2019-Nov-21 06:48 2.2 8.9
2019-Nov-21 06:42 2.2 8.9
2019-Nov-21 06:36 194 5 gusting 6 2.2 8.9
2019-Nov-21 06:30 194 3 gusting 5 2.2 8.9
2019-Nov-21 06:24 187 3 gusting 6 2.2 8.9
2019-Nov-21 06:18 201 5 gusting 7 2.8 8.9
2019-Nov-21 06:12 198 5 gusting 6 2.8 8.9
2019-Nov-21 06:06 195 5 gusting 6 2.8 8.9
2019-Nov-21 06:00 202 5 gusting 6 2.8 8.9
2019-Nov-21 05:54 2.8 8.9
2019-Nov-21 05:48 2.8 8.9
2019-Nov-21 05:42 2.8 8.9
2019-Nov-21 05:36 201 5 gusting 6 2.8 8.9
2019-Nov-21 05:30 197 4 gusting 6 2.8 8.9
2019-Nov-21 05:24 206 5 gusting 6 2.8 8.9
2019-Nov-21 05:18 203 6 gusting 7 3.3 8.9
2019-Nov-21 05:12 200 6 gusting 7 3.3 8.9
2019-Nov-21 05:06 202 6 gusting 7 3.3 8.9
2019-Nov-21 05:00 205 6 gusting 7 3.3 8.9
2019-Nov-21 04:54 3.3 8.9
2019-Nov-21 04:48 3.3 8.9
2019-Nov-21 04:42 3.3 8.9
2019-Nov-21 04:36 201 5 gusting 6 3.3 8.9
2019-Nov-21 04:30 196 5 gusting 6 3.3 8.9
2019-Nov-21 04:24 199 5 gusting 6 3.3 8.9
2019-Nov-21 04:18 203 5 gusting 6 3.3 8.9
2019-Nov-21 04:12 202 5 gusting 6 3.3 8.9
2019-Nov-21 04:06 197 5 gusting 6 3.3 8.9
2019-Nov-21 04:00 207 6 gusting 7 3.3 8.9
2019-Nov-21 03:54 3.3 8.9
2019-Nov-21 03:48 3.9 8.9
2019-Nov-21 03:42 3.3 8.9
2019-Nov-21 03:36 200 6 gusting 8 3.3 8.9
2019-Nov-21 03:30 205 6 gusting 6 3.9 8.9
2019-Nov-21 03:24 201 6 gusting 8 3.9 8.9
2019-Nov-21 03:18 205 6 gusting 6 3.9 8.9
2019-Nov-21 03:12 3.9 8.9
2019-Nov-21 03:06 3.9 8.9
2019-Nov-21 03:00 3.9 8.9
2019-Nov-21 02:54 3.9 8.9
2019-Nov-21 02:48 3.9 8.9
2019-Nov-21 02:42 3.9 8.9
2019-Nov-21 02:36 214 6 gusting 8 3.9 8.9
2019-Nov-21 02:30 214 6 gusting 8 3.9 8.9
2019-Nov-21 02:24 206 5 gusting 6 3.9 8.9
2019-Nov-21 02:18 199 5 gusting 6 3.9 8.9
2019-Nov-21 02:12 210 5 gusting 7 4.4 8.9
2019-Nov-21 02:06 202 3 gusting 4 4.4 8.9
2019-Nov-21 02:00 186 4 gusting 6 4.4 8.9
2019-Nov-21 01:54 4.4 8.9
2019-Nov-21 01:48 4.4 8.9
2019-Nov-21 01:42 5.0 8.9
2019-Nov-21 01:36 212 6 gusting 8 5.0 8.9
2019-Nov-21 01:30 205 5 gusting 7 5.0 8.9
2019-Nov-21 01:24 190 3 gusting 5 5.0 8.9
2019-Nov-21 01:18 201 5 gusting 8 5.0 8.9
2019-Nov-21 01:12 216 7 gusting 9 5.0 8.9
2019-Nov-21 01:06 200 5 gusting 6 5.6 8.9
2019-Nov-21 01:00 198 3 gusting 4 5.6 8.9
2019-Nov-21 00:54 6.1 8.9
2019-Nov-21 00:48 6.1 8.9
2019-Nov-21 00:42 6.7 8.9
2019-Nov-21 00:36 181 3 gusting 5 6.7 8.9
2019-Nov-21 00:30 199 4 gusting 6 7.2 8.9
2019-Nov-21 00:24 182 4 gusting 5 6.7 8.9
2019-Nov-21 00:18 180 2 gusting 4 7.2 8.9
2019-Nov-21 00:12 147 3 gusting 3 7.2 8.9
2019-Nov-21 00:06 152 2 gusting 4 7.8 8.9
2019-Nov-21 00:00 151 3 gusting 4 8.3 8.9
2019-Nov-20 23:42 9.4 8.9
2019-Nov-20 23:36 125 3 gusting 4 9.4 8.9
2019-Nov-20 23:30 119 3 gusting 4 10.0 8.9
2019-Nov-20 23:24 127 3 gusting 5 9.4 8.9
2019-Nov-20 23:18 117 4 gusting 5 9.4 8.9
2019-Nov-20 23:12 116 5 gusting 6 9.4 8.9
2019-Nov-20 23:06 108 4 gusting 4 10.0 8.9
2019-Nov-20 23:00 123 3 gusting 3 10.6 8.9
2019-Nov-20 22:54 10.0 8.9
2019-Nov-20 22:48 10.0 8.9
2019-Nov-20 22:42 10.0 8.9
2019-Nov-20 22:36 118 1 gusting 3 10.6 8.9
2019-Nov-20 22:30 111 1 gusting 2 10.6 8.9
2019-Nov-20 22:24 058 2 gusting 2 11.1 8.9
2019-Nov-20 22:18 078 1 gusting 2 11.7 8.9
2019-Nov-20 22:12 045 1 gusting 3 11.1 8.9
2019-Nov-20 22:06 047 1 gusting 2 11.1 8.9
2019-Nov-20 22:00 064 1 gusting 2 11.7 8.9
2019-Nov-20 21:54 11.1 8.9
2019-Nov-20 21:48 10.6 8.9
2019-Nov-20 21:42 10.6 8.9
2019-Nov-20 21:36 022 2 gusting 2 11.1 8.9
2019-Nov-20 21:30 027 2 gusting 3 11.1 8.9
2019-Nov-20 21:24 022 2 gusting 3 11.1 8.9
2019-Nov-20 21:18 031 2 gusting 3 10.6 8.9
2019-Nov-20 21:12 035 3 gusting 4 10.6 8.9
2019-Nov-20 21:06 028 3 gusting 4 10.6 8.9
2019-Nov-20 21:00 029 3 gusting 4 11.1 8.9
2019-Nov-20 20:54 11.1 8.9
2019-Nov-20 20:48 11.7 8.9
2019-Nov-20 20:42 11.7 8.9
2019-Nov-20 20:36 074 2 gusting 3 11.1 8.9
2019-Nov-20 20:30 101 3 gusting 3 11.1 8.9
2019-Nov-20 20:24 117 3 gusting 4 11.7 8.9
2019-Nov-20 20:18 120 2 gusting 3 11.1 8.9
2019-Nov-20 20:12 115 1 gusting 2 11.7 8.9
2019-Nov-20 20:06 066 1 gusting 3 11.7 8.9
2019-Nov-20 20:00 072 2 gusting 4 11.7 8.9
2019-Nov-20 19:54 11.1 8.9
2019-Nov-20 19:48 10.6 8.9
2019-Nov-20 19:42 10.6 8.9
2019-Nov-20 19:36 036 5 gusting 6 10.6 8.9
2019-Nov-20 19:30 054 4 gusting 6 11.1 8.9
2019-Nov-20 19:24 028 4 gusting 6 11.1 8.9
2019-Nov-20 19:18 041 6 gusting 6 11.7 8.9
2019-Nov-20 19:12 054 4 gusting 6 11.7 8.9
2019-Nov-20 19:06 027 4 gusting 6 11.7 8.9
2019-Nov-20 19:00 035 5 gusting 7 11.7 8.9
2019-Nov-20 18:54 031 7 gusting 7 12.2 8.9
2019-Nov-20 18:48 12.2 8.9
2019-Nov-20 18:42 11.1 8.9
2019-Nov-20 18:36 036 1 gusting 2 10.6 8.9
2019-Nov-20 18:30 356 1 gusting 1 9.4 8.9
2019-Nov-20 18:24 009 1 gusting 2 10.0 8.9
2019-Nov-20 18:18 027 2 gusting 3 10.6 8.9
2019-Nov-20 18:12 027 4 gusting 5 10.0 8.3
2019-Nov-20 18:06 018 5 gusting 6 10.6 8.3
2019-Nov-20 18:00 031 3 gusting 4 12.2 8.3
2019-Nov-20 17:54 11.7 8.3
2019-Nov-20 17:48 11.1 8.3
2019-Nov-20 17:42 11.1 8.3
2019-Nov-20 17:36 117 6 gusting 8 10.6 8.3
2019-Nov-20 17:30 127 7 gusting 10 10.6 8.3
2019-Nov-20 17:24 113 6 gusting 12 10.0 8.3
2019-Nov-20 17:18 137 4 gusting 9 10.6 8.3
2019-Nov-20 17:12 109 7 gusting 9 10.6 8.3
2019-Nov-20 17:06 154 2 gusting 5 10.6 8.3
2019-Nov-20 17:00 140 5 gusting 10 10.6 8.3
2019-Nov-20 16:54 10.0 8.3
2019-Nov-20 16:48 8.9 8.3
2019-Nov-20 16:42 8.9 8.3
2019-Nov-20 16:36 141 4 gusting 8 10.0 8.3
2019-Nov-20 16:30 147 6 gusting 11 9.4 8.3
2019-Nov-20 16:24 147 6 gusting 13 9.4 8.3
2019-Nov-20 16:18 130 11 gusting 14 9.4 8.3
2019-Nov-20 16:12 150 6 gusting 10 9.4 8.3
2019-Nov-20 16:06 145 8 gusting 13 6.7 8.3
2019-Nov-20 16:00 148 2 gusting 6 5.0 8.3
2019-Nov-20 15:54 3.9 8.3
2019-Nov-20 15:48 2.8 8.3
2019-Nov-20 15:42 2.2 8.3
2019-Nov-20 15:36 168 3 gusting 6 1.7 8.3
2019-Nov-20 15:30 194 3 gusting 5 1.7 8.9
2019-Nov-20 15:24 200 3 gusting 5 1.7 8.9
2019-Nov-20 15:18 180 3 gusting 5 1.7 8.9
2019-Nov-20 15:12 202 3 gusting 4 1.7 8.9
2019-Nov-20 15:06 200 2 gusting 5 1.7 8.9
2019-Nov-20 15:00 180 3 gusting 5 1.7 8.9
2019-Nov-20 14:54 1.7 8.9
2019-Nov-20 14:48 1.7 8.9
2019-Nov-20 14:42 2.2 8.9
2019-Nov-20 14:36 191 3 gusting 5 2.2 8.9
2019-Nov-20 14:30 184 3 gusting 5 2.2 8.9
2019-Nov-20 14:24 199 4 gusting 5 2.2 8.9
2019-Nov-20 14:18 186 5 gusting 6 2.2 8.9
2019-Nov-20 14:12 202 5 gusting 6 2.8 8.9
2019-Nov-20 14:06 199 4 gusting 5 2.2 8.9
2019-Nov-20 14:00 199 3 gusting 4 2.8 8.9
2019-Nov-20 13:54 2.8 8.9
2019-Nov-20 13:48 2.8 8.9
2019-Nov-20 13:42 2.8 8.9
2019-Nov-20 13:36 202 6 gusting 7 2.8 8.9
2019-Nov-20 13:30 202 5 gusting 7 2.8 8.9
2019-Nov-20 13:24 202 6 gusting 6 2.8 8.9
2019-Nov-20 13:18 194 3 gusting 5 2.8 8.9
2019-Nov-20 13:12 199 3 gusting 5 2.2 8.9
2019-Nov-20 13:06 194 3 gusting 6 2.2 8.9
2019-Nov-20 13:00 198 4 gusting 5 2.2 8.9
2019-Nov-20 12:54 205 3 gusting 5 2.2 8.9
2019-Nov-20 12:48 2.2 8.9
2019-Nov-20 12:42 2.2 8.9
2019-Nov-20 12:36 200 1 gusting 2 2.2 8.9
2019-Nov-20 12:30 184 2 gusting 3 2.8 8.9
2019-Nov-20 12:24 186 3 gusting 4 2.8 8.9
2019-Nov-20 12:18 190 4 gusting 6 2.8 8.9
2019-Nov-20 12:12 197 5 gusting 5 2.8 8.9
2019-Nov-20 12:06 190 5 gusting 6 2.8 8.9
2019-Nov-20 12:00 202 5 gusting 6 3.3 8.9
2019-Nov-20 11:54 200 4 gusting 5 3.3 8.9
2019-Nov-20 11:48 3.3 8.9
2019-Nov-20 11:42 3.3 8.9
2019-Nov-20 11:36 200 5 gusting 5 3.3 8.9
2019-Nov-20 11:30 193 5 gusting 6 3.3 8.9
2019-Nov-20 11:24 208 6 gusting 7 3.9 8.9
2019-Nov-20 11:18 206 6 gusting 6 3.9 8.9
2019-Nov-20 11:12 204 6 gusting 6 3.9 8.9
2019-Nov-20 11:06 195 6 gusting 7 3.3 8.9
2019-Nov-20 11:00 203 6 gusting 7 3.9 8.9
2019-Nov-20 10:54 3.9 8.9
2019-Nov-20 10:48 3.9 8.9
2019-Nov-20 10:42 4.4 8.9
2019-Nov-20 10:36 202 6 gusting 6 4.4 8.9
2019-Nov-20 10:30 205 5 gusting 6 3.9 8.9
2019-Nov-20 10:24 210 4 gusting 6 3.9 8.9
2019-Nov-20 10:18 200 5 gusting 6 3.9 8.9
2019-Nov-20 10:12 189 3 gusting 5 3.9 8.9
2019-Nov-20 10:06 198 3 gusting 4 3.3 8.9
2019-Nov-20 10:00 196 4 gusting 5 3.9 8.9
2019-Nov-20 09:54 199 4 gusting 4 3.9 8.9
2019-Nov-20 09:48 4.4 8.9
2019-Nov-20 09:42 3.9 8.9
2019-Nov-20 09:36 195 3 gusting 4 4.4 8.9
2019-Nov-20 09:30 202 4 gusting 5 4.4 8.9
2019-Nov-20 09:24 197 3 gusting 5 4.4 8.9
2019-Nov-20 09:18 186 5 gusting 6 4.4 8.9
2019-Nov-20 09:12 198 5 gusting 6 4.4 8.9
2019-Nov-20 09:06 202 3 gusting 5 4.4 8.9
2019-Nov-20 09:00 183 2 gusting 6 5.0 8.9
2019-Nov-20 08:54 189 3 gusting 5 4.4 8.9
2019-Nov-20 08:48 4.4 8.9
2019-Nov-20 08:42 4.4 8.9
2019-Nov-20 08:36 192 3 gusting 5 4.4 8.9
2019-Nov-20 08:30 191 4 gusting 6 4.4 8.9
2019-Nov-20 08:24 198 4 gusting 6 4.4 8.9
2019-Nov-20 08:18 199 6 gusting 7 5.0 8.9
2019-Nov-20 08:12 190 3 gusting 4 4.4 8.9
2019-Nov-20 08:06 198 2 gusting 4 4.4 8.9
2019-Nov-20 08:00 189 4 gusting 5 5.0 8.9
2019-Nov-20 07:54 4.4 8.9
2019-Nov-20 07:48 5.0 8.9
2019-Nov-20 07:42 5.0 8.9
2019-Nov-20 07:36 194 3 gusting 4 5.0 8.9
2019-Nov-20 07:30 194 3 gusting 4 5.6 8.9
2019-Nov-20 07:24 177 4 gusting 6 5.0 8.9
2019-Nov-20 07:18 192 5 gusting 6 5.0 8.9
2019-Nov-20 07:12 189 5 gusting 6 5.6 8.9
2019-Nov-20 07:06 192 5 gusting 6 5.0 8.9
2019-Nov-20 07:00 194 4 gusting 6 5.0 8.9
2019-Nov-20 06:54 5.0 8.9
2019-Nov-20 06:48 5.0 8.9
2019-Nov-20 06:42 5.0 8.9
2019-Nov-20 06:36 106 0 gusting 3 5.6 8.9
2019-Nov-20 06:30 181 3 gusting 8 5.0 8.9
2019-Nov-20 06:24 202 7 gusting 8 5.6 8.9
2019-Nov-20 06:18 206 6 gusting 8 5.6 8.9
2019-Nov-20 06:12 201 6 gusting 8 5.6 8.9
2019-Nov-20 06:06 190 5 gusting 6 5.0 8.9
2019-Nov-20 06:00 181 4 gusting 6 5.6 8.9
2019-Nov-20 05:54 201 5 gusting 6 5.6 8.9
2019-Nov-20 05:48 5.6 8.9
2019-Nov-20 05:42 5.6 8.9
2019-Nov-20 05:36 176 4 gusting 5 5.0 8.9
2019-Nov-20 05:30 185 5 gusting 6 5.6 8.9
2019-Nov-20 05:24 198 3 gusting 4 5.6 8.9
2019-Nov-20 05:18 226 1 gusting 4 5.6 8.9
2019-Nov-20 05:12 197 4 gusting 6 5.6 8.9
2019-Nov-20 05:06 213 3 gusting 5 5.6 8.9
2019-Nov-20 05:00 199 2 gusting 5 5.6 8.9
2019-Nov-20 04:54 5.6 8.9
2019-Nov-20 04:48 5.6 8.9
2019-Nov-20 04:42 6.1 8.9
2019-Nov-20 04:36 226 2 gusting 4 6.1 8.9
2019-Nov-20 04:30 228 3 gusting 4 6.7 8.9
2019-Nov-20 04:24 242 3 gusting 6 6.1 8.9
2019-Nov-20 04:18 214 4 gusting 6 6.1 8.9
2019-Nov-20 04:12 200 4 gusting 5 6.1 8.9
2019-Nov-20 04:06 203 4 gusting 6 6.7 8.9
2019-Nov-20 04:00 221 3 gusting 5 6.7 8.9
2019-Nov-20 03:54 6.7 8.9
2019-Nov-20 03:48 6.7 8.9
2019-Nov-20 03:42 6.7 8.9
2019-Nov-20 03:36 205 4 gusting 6 6.7 8.9
2019-Nov-20 03:30 196 5 gusting 6 6.7 8.9
2019-Nov-20 03:24 198 3 gusting 5 7.2 8.9
2019-Nov-20 03:18 189 3 gusting 5 7.2 8.9
2019-Nov-20 03:12 185 5 gusting 6 7.2 8.9
2019-Nov-20 03:06 187 5 gusting 6 7.2 8.9
2019-Nov-20 03:00 187 6 gusting 8 7.2 8.9
2019-Nov-20 02:54 7.2 8.9
2019-Nov-20 02:48 7.8 8.9
2019-Nov-20 02:42 7.8 8.9
2019-Nov-20 02:36 193 7 gusting 11 7.8 8.9
2019-Nov-20 02:30 202 9 gusting 13 7.8 8.9
2019-Nov-20 02:24 204 10 gusting 13 7.8 8.9
2019-Nov-20 02:18 199 8 gusting 12 8.3 8.9
2019-Nov-20 02:12 201 10 gusting 13 7.8 8.9
2019-Nov-20 02:06 204 9 gusting 13 7.8 8.9
2019-Nov-20 02:00 202 8 gusting 11 7.8 8.9
2019-Nov-20 01:54 7.8 8.9
2019-Nov-20 01:48 7.8 8.9
2019-Nov-20 01:42 7.8 8.9
2019-Nov-20 01:36 211 8 gusting 10 7.8 8.9
2019-Nov-20 01:30 211 8 gusting 9 7.8 8.9
2019-Nov-20 01:24 212 8 gusting 9 7.8 8.9
2019-Nov-20 01:18 208 8 gusting 10 7.8 8.9
2019-Nov-20 01:12 198 7 gusting 9 7.8 8.9
2019-Nov-20 01:06 212 7 gusting 9 7.8 8.9
2019-Nov-20 01:00 213 7 gusting 8 8.3 8.9
2019-Nov-20 00:54 8.3 8.9
2019-Nov-20 00:48 8.3 8.9
2019-Nov-20 00:42 8.3 8.9
2019-Nov-20 00:36 211 6 gusting 7 8.9 8.9
2019-Nov-20 00:30 210 6 gusting 8 8.9 8.9
2019-Nov-20 00:24 208 6 gusting 6 9.4 8.9
2019-Nov-20 00:18 204 4 gusting 6 9.4 8.9
2019-Nov-20 00:12 188 2 gusting 3 10.0 8.9
2019-Nov-20 00:06 205 2 gusting 3 11.1 8.9
2019-Nov-20 00:00 178 12.2 8.9
2019-Nov-19 23:54 078 1 gusting 2 12.2 8.9
2019-Nov-19 23:42 12.8 8.9
2019-Nov-19 23:36 156 1 gusting 2 12.2 8.9
2019-Nov-19 23:30 162 1 gusting 2 12.2 8.9
2019-Nov-19 23:24 140 1 gusting 4 12.2 8.9
2019-Nov-19 23:18 131 2 gusting 3 12.2 8.9
2019-Nov-19 23:12 148 2 gusting 4 12.2 8.9
2019-Nov-19 23:06 131 3 gusting 3 11.7 8.9
2019-Nov-19 23:00 101 2 gusting 4 11.7 8.9
2019-Nov-19 22:54 11.7 8.9
2019-Nov-19 22:48 11.7 8.9
2019-Nov-19 22:42 11.1 8.9
2019-Nov-19 22:36 130 3 gusting 3 11.7 8.9
2019-Nov-19 22:30 127 2 gusting 3 11.7 8.9
2019-Nov-19 22:24 127 2 gusting 3 11.7 8.9
2019-Nov-19 22:18 125 2 gusting 3 11.7 8.9
2019-Nov-19 22:12 122 3 gusting 3 11.7 8.9
2019-Nov-19 22:06 124 2 gusting 4 11.1 8.9
2019-Nov-19 22:00 139 3 gusting 5 11.1 8.9
2019-Nov-19 21:54 11.1 8.9
2019-Nov-19 21:48 11.7 8.9
2019-Nov-19 21:42 11.7 8.9
2019-Nov-19 21:36 073 4 gusting 6 11.7 8.9
2019-Nov-19 21:30 073 5 gusting 7 11.1 8.9
2019-Nov-19 21:24 091 4 gusting 6 10.6 8.9
2019-Nov-19 21:18 112 6 gusting 7 10.6 8.9
2019-Nov-19 21:12 112 6 gusting 7 10.6 8.9
2019-Nov-19 21:06 117 5 gusting 6 10.6 8.9
2019-Nov-19 21:00 118 5 gusting 6 10.6 8.9
2019-Nov-19 20:54 10.6 8.9
2019-Nov-19 20:48 11.1 8.9
2019-Nov-19 20:42 11.1 8.9
2019-Nov-19 20:36 091 5 gusting 6 11.1 8.9
2019-Nov-19 20:30 089 5 gusting 6 11.1 8.9
2019-Nov-19 20:24 086 5 gusting 6 10.6 8.9
2019-Nov-19 20:18 091 4 gusting 6 10.6 8.9
2019-Nov-19 20:12 096 6 gusting 7 10.6 8.9
2019-Nov-19 20:06 100 5 gusting 6 10.6 8.9
2019-Nov-19 20:00 107 6 gusting 7 10.6 8.9
2019-Nov-19 19:54 103 6 gusting 7 10.6 8.9
2019-Nov-19 19:48 10.6 8.9
2019-Nov-19 19:42 10.6 8.9
2019-Nov-19 19:36 103 6 gusting 7 10.0 8.9
2019-Nov-19 19:30 121 6 gusting 7 10.6 8.9
2019-Nov-19 19:24 123 6 gusting 8 10.0 8.9
2019-Nov-19 19:18 122 6 gusting 7 10.6 8.9
2019-Nov-19 19:12 120 6 gusting 6 10.6 8.9
2019-Nov-19 19:06 121 5 gusting 6 10.6 8.9
2019-Nov-19 19:00 121 4 gusting 5 10.6 8.9
2019-Nov-19 18:54 122 4 gusting 5 9.4 8.9
2019-Nov-19 18:48 9.4 8.9
2019-Nov-19 18:42 9.4 8.9
2019-Nov-19 18:36 108 5 gusting 5 8.9 8.9
2019-Nov-19 18:30 107 4 gusting 5 9.4 8.9
2019-Nov-19 18:24 117 3 gusting 4 9.4 8.9
2019-Nov-19 18:18 110 3 gusting 4 9.4 8.9
2019-Nov-19 18:12 106 1 gusting 2 9.4 8.9
2019-Nov-19 18:06 121 1 gusting 2 8.9 8.9
2019-Nov-19 18:00 129 2 gusting 2 9.4 8.9